Historyczne dane pomiarowe

Dodano dane terminowe – wersja testowa.

Dane z okresu 1951-2019

Wersja bazy: 1.34 [2019-03-16, lista zmian], aktualizacja planowana na 2019-04-15

Dane meteo z obszaru Polski uzyskane na podstawie danych udostępnionych przez Instytut Meteorologii i Gospodarki Wodnej – Państwowy Instytut Badawczy.

 

Wybierz Datę:    

       

TemperaturaWilgotnośćWiatrCiśnienieOpadyŚniegCzas trwania zjawisk
 Stacja t tx tn tng RH VA  wxwx mslp ppp RRR   cm mm wxwxwxwxwxwxwx
1959-09-11 12.8 20.4 7.6 4.5 84.0- 2.0 1.7---- 0.0------------
1959-09-12 11.7 21.1 3.5 0.9 82.3- 1.7 1.0---- 0.0------------
1959-09-13 14.7 22.4 5.5 2.2 79.8- 4.7 2.7---- 3.8------------
1959-09-14 10.6 14.8 7.1 6.0 79.8- 2.0 4.0---- 0.3------------
1959-09-15 12.1 17.3 4.6 0.7 71.0- 3.7 3.7---- 1.0------------
1959-09-16 9.6 16.4 4.1 7.4 77.5- 5.3 5.0---- 3.0------------
1959-09-17 6.0 12.0 1.1 -0.7 78.0- 0.7 3.0---- 0.4------------
1959-09-18 8.0 12.7 3.2 0.7 80.5- 4.0 3.7---- 2.2------------
1959-09-19 9.9 15.8 3.1 -0.7 73.0- 4.3 3.0---- 0.8------------
1959-09-20 11.0 15.5 7.3 7.1 81.8- 6.0 4.7---- 0.1------------
1959-09-21 10.6 17.6 4.5 0.1 82.8- 5.7 1.0---- 0.0------------
1959-09-22 13.7 16.8 7.6 5.0 74.3- 7.3 5.3---- 1.4------------
1959-09-23 11.7 16.4 7.2 5.4 79.3- 6.0 6.7---- 1.5------------
1959-09-24 9.0 14.0 5.5 5.1 82.3- 4.7 4.3---- 0.4------------
1959-09-25 6.8 12.9 2.1 -1.5 82.8- 4.0 2.0---- 0.0------------
1959-09-26 5.9 14.3 -1.1 -4.1 80.5- 0.0 1.3---- 0.0------------
1959-09-27 11.2 17.4 -0.4 -3.1 75.8- 6.0 1.3---- 7.1------------
1959-09-28 5.5 10.7 3.1 5.5 81.8- 7.3 8.0---- 2.8------------
1959-09-29 5.6 8.6 0.1 -0.9 75.0- 7.7 6.3---- 0.0------------
1959-09-30 3.3 8.3 -0.5 1.7 80.8- 5.0 2.0---- 0.0------------
1959-10-01 9.3 13.8 -0.6 -3.2 75.8- 5.3 5.0---- 0.0------------
1959-10-02 8.0 12.2 1.0 -1.8 79.3- 2.0 2.3---- 0.0------------
1959-10-03 8.2 12.9 3.6 0.0 85.8- 7.3 3.0---- 0.0------------
1959-10-04 3.6 6.6 0.7 0.3 63.8- 5.0 3.0---- 0.0------------
1959-10-05 2.1 7.8 -5.7-10.3 74.3- 3.0 0.0---- 0.0------------
1959-10-06 8.3 13.1 1.1 1.6 66.8- 2.7 5.3---- 0.0------------
1959-10-07 11.1 16.8 5.9 4.6 81.3- 3.3 5.3---- 0.0------------
1959-10-08 6.6 10.3 2.0 4.9 82.5- 5.3 2.7---- 0.0------------
1959-10-09 0.4 10.8 -6.2-10.1 76.5- 0.3 0.7---- 0.0------------
1959-10-10 1.2 11.9 -7.2-10.4 72.5- 0.3 1.0---- 0.0------------
114.0 ms

 

Źródłem pochodzenia danych jest Instytut Meteorologii i Gospodarki Wodnej – Państwowy Instytut Badawczy. Dane Instytutu Meteorologii i Gospodarki Wodnej – Państwowego Instytutu Badawczego zostały przetworzone.

Dane źródłowe można odnaleźć na stronie https://dane.imgw.pl